sensor_id;sensor_type;location;lat;lon;timestamp;P1;durP1;ratioP1;P2;durP2;ratioP2
80732;SDS011;70130;44.534;18.678;2024-01-30T00:01:06;205.40;;;87.30;;
80732;SDS011;70130;44.534;18.678;2024-01-30T00:03:38;200.57;;;84.03;;
80732;SDS011;70130;44.534;18.678;2024-01-30T00:06:06;190.03;;;77.37;;
80732;SDS011;70130;44.534;18.678;2024-01-30T00:08:38;178.77;;;77.37;;
80732;SDS011;70130;44.534;18.678;2024-01-30T00:11:04;172.87;;;75.90;;
80732;SDS011;70130;44.534;18.678;2024-01-30T00:13:33;189.20;;;77.80;;
80732;SDS011;70130;44.534;18.678;2024-01-30T00:15:58;185.87;;;81.10;;
80732;SDS011;70130;44.534;18.678;2024-01-30T00:18:27;187.07;;;81.67;;
80732;SDS011;70130;44.534;18.678;2024-01-30T00:20:53;197.27;;;82.87;;
80732;SDS011;70130;44.534;18.678;2024-01-30T00:23:22;175.13;;;79.33;;
80732;SDS011;70130;44.534;18.678;2024-01-30T00:25:47;171.03;;;73.53;;
80732;SDS011;70130;44.534;18.678;2024-01-30T00:28:13;173.87;;;74.37;;
80732;SDS011;70130;44.534;18.678;2024-01-30T00:30:44;155.90;;;70.67;;
80732;SDS011;70130;44.534;18.678;2024-01-30T00:33:13;168.97;;;69.83;;
80732;SDS011;70130;44.534;18.678;2024-01-30T00:35:38;172.30;;;72.83;;
80732;SDS011;70130;44.534;18.678;2024-01-30T00:38:04;183.10;;;76.83;;
80732;SDS011;70130;44.534;18.678;2024-01-30T00:40:32;194.33;;;86.43;;
80732;SDS011;70130;44.534;18.678;2024-01-30T00:42:58;201.47;;;85.33;;
80732;SDS011;70130;44.534;18.678;2024-01-30T00:45:26;183.47;;;83.53;;
80732;SDS011;70130;44.534;18.678;2024-01-30T00:47:52;198.17;;;83.63;;
80732;SDS011;70130;44.534;18.678;2024-01-30T00:50:21;187.33;;;82.23;;
80732;SDS011;70130;44.534;18.678;2024-01-30T00:52:46;190.47;;;78.83;;
80732;SDS011;70130;44.534;18.678;2024-01-30T00:55:15;191.67;;;82.93;;
80732;SDS011;70130;44.534;18.678;2024-01-30T00:57:53;196.33;;;85.53;;
80732;SDS011;70130;44.534;18.678;2024-01-30T01:00:18;188.53;;;80.47;;
80732;SDS011;70130;44.534;18.678;2024-01-30T01:02:46;208.97;;;88.30;;
80732;SDS011;70130;44.534;18.678;2024-01-30T01:05:11;214.40;;;89.37;;
80732;SDS011;70130;44.534;18.678;2024-01-30T01:07:40;220.77;;;94.37;;
80732;SDS011;70130;44.534;18.678;2024-01-30T01:10:10;239.75;;;97.70;;
80732;SDS011;70130;44.534;18.678;2024-01-30T01:12:38;223.73;;;97.90;;
80732;SDS011;70130;44.534;18.678;2024-01-30T01:15:07;227.30;;;97.60;;
80732;SDS011;70130;44.534;18.678;2024-01-30T01:17:39;232.30;;;102.13;;
80732;SDS011;70130;44.534;18.678;2024-01-30T01:20:08;242.07;;;101.97;;
80732;SDS011;70130;44.534;18.678;2024-01-30T01:22:38;207.93;;;91.32;;
80732;SDS011;70130;44.534;18.678;2024-01-30T01:25:07;190.30;;;83.60;;
80732;SDS011;70130;44.534;18.678;2024-01-30T01:27:36;194.27;;;84.60;;
80732;SDS011;70130;44.534;18.678;2024-01-30T01:30:07;205.50;;;87.03;;
80732;SDS011;70130;44.534;18.678;2024-01-30T01:32:34;185.97;;;76.70;;
80732;SDS011;70130;44.534;18.678;2024-01-30T01:35:03;164.73;;;74.93;;
80732;SDS011;70130;44.534;18.678;2024-01-30T01:37:33;168.27;;;69.82;;
80732;SDS011;70130;44.534;18.678;2024-01-30T01:39:59;151.80;;;65.93;;
80732;SDS011;70130;44.534;18.678;2024-01-30T01:42:34;145.20;;;64.73;;
80732;SDS011;70130;44.534;18.678;2024-01-30T01:45:04;147.13;;;62.83;;
80732;SDS011;70130;44.534;18.678;2024-01-30T01:47:33;138.13;;;61.28;;
80732;SDS011;70130;44.534;18.678;2024-01-30T01:50:02;139.77;;;63.30;;
80732;SDS011;70130;44.534;18.678;2024-01-30T01:52:31;146.07;;;62.60;;
80732;SDS011;70130;44.534;18.678;2024-01-30T01:55:00;136.67;;;61.57;;
80732;SDS011;70130;44.534;18.678;2024-01-30T01:57:26;135.03;;;59.10;;
80732;SDS011;70130;44.534;18.678;2024-01-30T02:00:08;142.37;;;62.70;;
80732;SDS011;70130;44.534;18.678;2024-01-30T02:02:35;139.13;;;60.40;;
80732;SDS011;70130;44.534;18.678;2024-01-30T02:05:05;137.97;;;63.77;;
80732;SDS011;70130;44.534;18.678;2024-01-30T02:07:33;158.83;;;64.20;;
80732;SDS011;70130;44.534;18.678;2024-01-30T02:10:05;141.53;;;57.63;;
80732;SDS011;70130;44.534;18.678;2024-01-30T02:12:33;150.63;;;60.90;;
80732;SDS011;70130;44.534;18.678;2024-01-30T02:15:01;132.47;;;59.17;;
80732;SDS011;70130;44.534;18.678;2024-01-30T02:17:30;139.83;;;60.63;;
80732;SDS011;70130;44.534;18.678;2024-01-30T02:20:02;144.80;;;56.90;;
80732;SDS011;70130;44.534;18.678;2024-01-30T02:22:30;131.53;;;53.53;;
80732;SDS011;70130;44.534;18.678;2024-01-30T02:24:59;135.67;;;56.87;;
80732;SDS011;70130;44.534;18.678;2024-01-30T02:27:25;128.57;;;55.13;;
80732;SDS011;70130;44.534;18.678;2024-01-30T02:29:59;127.63;;;55.13;;
80732;SDS011;70130;44.534;18.678;2024-01-30T02:32:28;135.20;;;54.17;;
80732;SDS011;70130;44.534;18.678;2024-01-30T02:34:56;124.20;;;53.90;;
80732;SDS011;70130;44.534;18.678;2024-01-30T02:37:28;141.50;;;58.50;;
80732;SDS011;70130;44.534;18.678;2024-01-30T02:39:53;143.03;;;58.90;;
80732;SDS011;70130;44.534;18.678;2024-01-30T02:42:19;145.77;;;64.83;;
80732;SDS011;70130;44.534;18.678;2024-01-30T02:44:47;168.10;;;71.17;;
80732;SDS011;70130;44.534;18.678;2024-01-30T02:47:16;166.17;;;69.80;;
80732;SDS011;70130;44.534;18.678;2024-01-30T02:49:41;157.67;;;68.43;;
80732;SDS011;70130;44.534;18.678;2024-01-30T02:52:10;158.77;;;66.23;;
80732;SDS011;70130;44.534;18.678;2024-01-30T02:54:38;133.77;;;60.30;;
80732;SDS011;70130;44.534;18.678;2024-01-30T02:59:58;129.20;;;53.27;;
80732;SDS011;70130;44.534;18.678;2024-01-30T03:02:26;120.43;;;51.87;;
80732;SDS011;70130;44.534;18.678;2024-01-30T03:04:54;136.03;;;56.33;;
80732;SDS011;70130;44.534;18.678;2024-01-30T03:07:33;116.77;;;54.03;;
80732;SDS011;70130;44.534;18.678;2024-01-30T03:09:59;124.67;;;54.63;;
80732;SDS011;70130;44.534;18.678;2024-01-30T03:12:37;126.57;;;52.00;;
80732;SDS011;70130;44.534;18.678;2024-01-30T03:15:05;113.53;;;49.97;;
80732;SDS011;70130;44.534;18.678;2024-01-30T03:17:34;129.07;;;52.00;;
80732;SDS011;70130;44.534;18.678;2024-01-30T03:20:04;115.53;;;48.95;;
80732;SDS011;70130;44.534;18.678;2024-01-30T03:22:31;121.32;;;51.95;;
80732;SDS011;70130;44.534;18.678;2024-01-30T03:25:00;105.27;;;45.53;;
80732;SDS011;70130;44.534;18.678;2024-01-30T03:27:37;100.63;;;41.37;;
80732;SDS011;70130;44.534;18.678;2024-01-30T03:30:06;101.90;;;41.13;;
80732;SDS011;70130;44.534;18.678;2024-01-30T03:32:41;91.87;;;40.33;;
80732;SDS011;70130;44.534;18.678;2024-01-30T03:35:10;85.47;;;38.87;;
80732;SDS011;70130;44.534;18.678;2024-01-30T03:37:38;92.00;;;40.77;;
80732;SDS011;70130;44.534;18.678;2024-01-30T03:40:04;91.63;;;40.10;;
80732;SDS011;70130;44.534;18.678;2024-01-30T03:42:30;92.13;;;39.90;;
80732;SDS011;70130;44.534;18.678;2024-01-30T03:44:59;90.40;;;39.43;;
80732;SDS011;70130;44.534;18.678;2024-01-30T03:47:27;87.50;;;36.77;;
80732;SDS011;70130;44.534;18.678;2024-01-30T03:49:53;93.73;;;37.87;;
80732;SDS011;70130;44.534;18.678;2024-01-30T03:52:26;82.60;;;36.03;;
80732;SDS011;70130;44.534;18.678;2024-01-30T03:54:51;85.30;;;37.13;;
80732;SDS011;70130;44.534;18.678;2024-01-30T03:57:20;85.83;;;38.37;;
80732;SDS011;70130;44.534;18.678;2024-01-30T03:59:49;85.97;;;36.57;;
80732;SDS011;70130;44.534;18.678;2024-01-30T04:02:18;69.47;;;33.07;;
80732;SDS011;70130;44.534;18.678;2024-01-30T04:04:46;72.07;;;30.60;;
80732;SDS011;70130;44.534;18.678;2024-01-30T04:07:14;61.63;;;26.67;;
80732;SDS011;70130;44.534;18.678;2024-01-30T04:09:46;53.60;;;25.87;;
80732;SDS011;70130;44.534;18.678;2024-01-30T04:12:14;56.97;;;25.40;;
80732;SDS011;70130;44.534;18.678;2024-01-30T04:14:43;55.83;;;24.80;;
80732;SDS011;70130;44.534;18.678;2024-01-30T04:17:12;59.03;;;26.27;;
80732;SDS011;70130;44.534;18.678;2024-01-30T04:19:40;65.33;;;29.00;;
80732;SDS011;70130;44.534;18.678;2024-01-30T04:22:09;70.73;;;32.87;;
80732;SDS011;70130;44.534;18.678;2024-01-30T04:24:37;68.83;;;33.03;;
80732;SDS011;70130;44.534;18.678;2024-01-30T04:27:03;81.63;;;34.53;;
80732;SDS011;70130;44.534;18.678;2024-01-30T04:29:32;86.03;;;36.13;;
80732;SDS011;70130;44.534;18.678;2024-01-30T04:32:01;75.57;;;34.73;;
80732;SDS011;70130;44.534;18.678;2024-01-30T04:34:30;80.10;;;35.43;;
80732;SDS011;70130;44.534;18.678;2024-01-30T04:37:01;78.90;;;34.97;;
80732;SDS011;70130;44.534;18.678;2024-01-30T04:39:27;77.13;;;33.97;;
80732;SDS011;70130;44.534;18.678;2024-01-30T04:41:53;79.40;;;36.87;;
80732;SDS011;70130;44.534;18.678;2024-01-30T04:44:31;87.10;;;35.43;;
80732;SDS011;70130;44.534;18.678;2024-01-30T04:46:59;91.70;;;37.63;;
80732;SDS011;70130;44.534;18.678;2024-01-30T04:49:29;97.53;;;39.55;;
80732;SDS011;70130;44.534;18.678;2024-01-30T04:52:01;96.10;;;41.77;;
80732;SDS011;70130;44.534;18.678;2024-01-30T04:54:29;98.17;;;38.03;;
80732;SDS011;70130;44.534;18.678;2024-01-30T04:57:13;87.77;;;40.00;;
80732;SDS011;70130;44.534;18.678;2024-01-30T04:59:41;98.37;;;42.53;;
80732;SDS011;70130;44.534;18.678;2024-01-30T05:02:07;96.47;;;42.20;;
80732;SDS011;70130;44.534;18.678;2024-01-30T05:04:35;87.37;;;42.07;;
80732;SDS011;70130;44.534;18.678;2024-01-30T05:07:01;97.93;;;42.93;;
80732;SDS011;70130;44.534;18.678;2024-01-30T05:09:30;139.30;;;52.00;;
80732;SDS011;70130;44.534;18.678;2024-01-30T05:15:01;106.73;;;43.53;;
80732;SDS011;70130;44.534;18.678;2024-01-30T05:17:39;99.40;;;42.27;;
80732;SDS011;70130;44.534;18.678;2024-01-30T05:20:08;90.33;;;40.33;;
80732;SDS011;70130;44.534;18.678;2024-01-30T05:22:38;101.72;;;42.38;;
80732;SDS011;70130;44.534;18.678;2024-01-30T05:25:10;95.90;;;42.33;;
80732;SDS011;70130;44.534;18.678;2024-01-30T05:27:36;100.13;;;41.80;;
80732;SDS011;70130;44.534;18.678;2024-01-30T05:30:05;103.07;;;45.40;;
80732;SDS011;70130;44.534;18.678;2024-01-30T05:32:43;112.10;;;46.00;;
80732;SDS011;70130;44.534;18.678;2024-01-30T05:35:21;107.63;;;47.40;;
80732;SDS011;70130;44.534;18.678;2024-01-30T05:37:56;105.70;;;43.87;;
80732;SDS011;70130;44.534;18.678;2024-01-30T05:40:21;95.23;;;41.83;;
80732;SDS011;70130;44.534;18.678;2024-01-30T05:42:51;96.87;;;40.57;;
80732;SDS011;70130;44.534;18.678;2024-01-30T05:45:17;90.53;;;38.83;;
80732;SDS011;70130;44.534;18.678;2024-01-30T05:47:46;100.40;;;42.57;;
80732;SDS011;70130;44.534;18.678;2024-01-30T05:50:12;101.10;;;42.77;;
80732;SDS011;70130;44.534;18.678;2024-01-30T05:52:37;92.93;;;42.47;;
80732;SDS011;70130;44.534;18.678;2024-01-30T05:55:03;99.13;;;44.33;;
80732;SDS011;70130;44.534;18.678;2024-01-30T05:57:32;99.67;;;45.47;;
80732;SDS011;70130;44.534;18.678;2024-01-30T05:59:58;108.97;;;45.63;;
80732;SDS011;70130;44.534;18.678;2024-01-30T06:02:24;103.30;;;45.93;;
80732;SDS011;70130;44.534;18.678;2024-01-30T06:04:49;113.83;;;50.50;;
80732;SDS011;70130;44.534;18.678;2024-01-30T06:07:15;109.47;;;48.90;;
80732;SDS011;70130;44.534;18.678;2024-01-30T06:09:42;115.33;;;50.63;;
80732;SDS011;70130;44.534;18.678;2024-01-30T06:12:08;111.73;;;51.90;;
80732;SDS011;70130;44.534;18.678;2024-01-30T06:14:34;116.53;;;48.90;;
80732;SDS011;70130;44.534;18.678;2024-01-30T06:16:59;122.53;;;52.43;;
80732;SDS011;70130;44.534;18.678;2024-01-30T06:19:25;119.93;;;55.00;;
80732;SDS011;70130;44.534;18.678;2024-01-30T06:21:51;129.77;;;57.97;;
80732;SDS011;70130;44.534;18.678;2024-01-30T06:24:16;137.27;;;59.70;;
80732;SDS011;70130;44.534;18.678;2024-01-30T06:26:42;162.53;;;66.10;;
80732;SDS011;70130;44.534;18.678;2024-01-30T06:29:08;150.07;;;62.90;;
80732;SDS011;70130;44.534;18.678;2024-01-30T06:31:39;140.43;;;59.93;;
80732;SDS011;70130;44.534;18.678;2024-01-30T06:34:07;126.07;;;54.40;;
80732;SDS011;70130;44.534;18.678;2024-01-30T06:36:33;128.90;;;57.10;;
80732;SDS011;70130;44.534;18.678;2024-01-30T06:38:59;121.87;;;57.33;;
80732;SDS011;70130;44.534;18.678;2024-01-30T06:41:25;116.20;;;53.03;;
80732;SDS011;70130;44.534;18.678;2024-01-30T06:43:51;128.73;;;53.87;;
80732;SDS011;70130;44.534;18.678;2024-01-30T06:46:17;126.00;;;54.80;;
80732;SDS011;70130;44.534;18.678;2024-01-30T06:48:42;141.50;;;54.67;;
80732;SDS011;70130;44.534;18.678;2024-01-30T06:51:10;143.40;;;56.73;;
80732;SDS011;70130;44.534;18.678;2024-01-30T06:53:37;131.17;;;57.50;;
80732;SDS011;70130;44.534;18.678;2024-01-30T06:56:04;133.77;;;57.93;;
80732;SDS011;70130;44.534;18.678;2024-01-30T06:58:30;125.17;;;53.53;;
80732;SDS011;70130;44.534;18.678;2024-01-30T07:00:56;137.90;;;58.27;;
80732;SDS011;70130;44.534;18.678;2024-01-30T07:03:21;122.70;;;51.40;;
80732;SDS011;70130;44.534;18.678;2024-01-30T07:05:48;116.07;;;51.87;;
80732;SDS011;70130;44.534;18.678;2024-01-30T07:08:14;119.10;;;49.73;;
80732;SDS011;70130;44.534;18.678;2024-01-30T07:10:42;117.87;;;48.80;;
80732;SDS011;70130;44.534;18.678;2024-01-30T07:13:10;126.30;;;53.67;;
80732;SDS011;70130;44.534;18.678;2024-01-30T07:15:36;126.13;;;54.13;;
80732;SDS011;70130;44.534;18.678;2024-01-30T07:18:05;124.43;;;53.73;;
80732;SDS011;70130;44.534;18.678;2024-01-30T07:20:31;146.10;;;61.43;;
80732;SDS011;70130;44.534;18.678;2024-01-30T07:22:59;132.53;;;55.57;;
80732;SDS011;70130;44.534;18.678;2024-01-30T07:25:25;118.63;;;54.57;;
80732;SDS011;70130;44.534;18.678;2024-01-30T07:27:55;134.60;;;59.17;;
80732;SDS011;70130;44.534;18.678;2024-01-30T07:30:24;136.67;;;60.97;;
80732;SDS011;70130;44.534;18.678;2024-01-30T07:32:52;144.57;;;69.67;;
80732;SDS011;70130;44.534;18.678;2024-01-30T07:35:17;149.43;;;72.03;;
80732;SDS011;70130;44.534;18.678;2024-01-30T07:37:44;152.73;;;64.17;;
80732;SDS011;70130;44.534;18.678;2024-01-30T07:40:09;121.03;;;50.83;;
80732;SDS011;70130;44.534;18.678;2024-01-30T07:42:35;117.20;;;55.17;;
80732;SDS011;70130;44.534;18.678;2024-01-30T07:45:01;118.27;;;54.27;;
80732;SDS011;70130;44.534;18.678;2024-01-30T07:47:29;127.20;;;56.00;;
80732;SDS011;70130;44.534;18.678;2024-01-30T07:49:55;139.67;;;63.23;;
80732;SDS011;70130;44.534;18.678;2024-01-30T07:52:21;128.90;;;57.50;;
80732;SDS011;70130;44.534;18.678;2024-01-30T07:54:50;127.67;;;57.13;;
80732;SDS011;70130;44.534;18.678;2024-01-30T07:57:16;125.97;;;56.33;;
80732;SDS011;70130;44.534;18.678;2024-01-30T07:59:43;108.77;;;48.33;;
80732;SDS011;70130;44.534;18.678;2024-01-30T08:02:10;115.47;;;52.97;;
80732;SDS011;70130;44.534;18.678;2024-01-30T08:04:37;133.20;;;58.37;;
80732;SDS011;70130;44.534;18.678;2024-01-30T08:07:03;133.13;;;60.13;;
80732;SDS011;70130;44.534;18.678;2024-01-30T08:09:28;145.90;;;63.90;;
80732;SDS011;70130;44.534;18.678;2024-01-30T08:11:54;133.20;;;59.10;;
80732;SDS011;70130;44.534;18.678;2024-01-30T08:14:20;133.07;;;59.17;;
80732;SDS011;70130;44.534;18.678;2024-01-30T08:16:46;131.00;;;59.23;;
80732;SDS011;70130;44.534;18.678;2024-01-30T08:19:12;127.20;;;59.13;;
80732;SDS011;70130;44.534;18.678;2024-01-30T08:21:41;123.83;;;55.73;;
80732;SDS011;70130;44.534;18.678;2024-01-30T08:24:07;120.23;;;54.03;;
80732;SDS011;70130;44.534;18.678;2024-01-30T08:26:33;105.37;;;48.77;;
80732;SDS011;70130;44.534;18.678;2024-01-30T08:28:59;123.20;;;59.93;;
80732;SDS011;70130;44.534;18.678;2024-01-30T08:31:26;167.47;;;75.40;;
80732;SDS011;70130;44.534;18.678;2024-01-30T08:33:55;170.40;;;82.37;;
80732;SDS011;70130;44.534;18.678;2024-01-30T08:36:23;180.40;;;86.70;;
80732;SDS011;70130;44.534;18.678;2024-01-30T08:38:49;211.20;;;91.53;;
80732;SDS011;70130;44.534;18.678;2024-01-30T08:41:14;210.07;;;95.27;;
80732;SDS011;70130;44.534;18.678;2024-01-30T08:43:40;202.23;;;94.37;;
80732;SDS011;70130;44.534;18.678;2024-01-30T08:46:06;164.03;;;75.87;;
80732;SDS011;70130;44.534;18.678;2024-01-30T08:48:32;231.63;;;103.20;;
80732;SDS011;70130;44.534;18.678;2024-01-30T08:51:00;251.43;;;118.13;;
80732;SDS011;70130;44.534;18.678;2024-01-30T08:53:26;254.37;;;116.77;;
80732;SDS011;70130;44.534;18.678;2024-01-30T08:55:51;249.70;;;116.17;;
80732;SDS011;70130;44.534;18.678;2024-01-30T08:58:17;274.83;;;129.00;;
80732;SDS011;70130;44.534;18.678;2024-01-30T09:00:44;272.00;;;126.97;;
80732;SDS011;70130;44.534;18.678;2024-01-30T09:03:10;297.53;;;137.90;;
80732;SDS011;70130;44.534;18.678;2024-01-30T09:05:36;282.47;;;139.07;;
80732;SDS011;70130;44.534;18.678;2024-01-30T09:08:01;251.63;;;121.90;;
80732;SDS011;70130;44.534;18.678;2024-01-30T09:10:27;278.73;;;131.73;;
80732;SDS011;70130;44.534;18.678;2024-01-30T09:12:53;271.37;;;127.90;;
80732;SDS011;70130;44.534;18.678;2024-01-30T09:15:18;245.80;;;120.23;;
80732;SDS011;70130;44.534;18.678;2024-01-30T09:17:44;242.30;;;111.90;;
80732;SDS011;70130;44.534;18.678;2024-01-30T09:20:10;170.83;;;73.10;;
80732;SDS011;70130;44.534;18.678;2024-01-30T09:22:36;174.17;;;77.60;;
80732;SDS011;70130;44.534;18.678;2024-01-30T09:25:02;138.40;;;63.23;;
80732;SDS011;70130;44.534;18.678;2024-01-30T09:27:28;138.97;;;60.73;;
80732;SDS011;70130;44.534;18.678;2024-01-30T09:29:55;128.13;;;58.53;;
80732;SDS011;70130;44.534;18.678;2024-01-30T09:32:23;105.63;;;43.83;;
80732;SDS011;70130;44.534;18.678;2024-01-30T09:34:53;119.95;;;55.50;;
80732;SDS011;70130;44.534;18.678;2024-01-30T09:37:21;121.17;;;52.57;;
80732;SDS011;70130;44.534;18.678;2024-01-30T09:39:49;116.07;;;50.50;;
80732;SDS011;70130;44.534;18.678;2024-01-30T09:42:35;140.40;;;58.13;;
80732;SDS011;70130;44.534;18.678;2024-01-30T09:45:04;122.03;;;52.23;;
80732;SDS011;70130;44.534;18.678;2024-01-30T09:47:31;143.50;;;59.90;;
80732;SDS011;70130;44.534;18.678;2024-01-30T09:50:10;173.77;;;69.87;;
80732;SDS011;70130;44.534;18.678;2024-01-30T09:52:36;112.97;;;52.23;;
80732;SDS011;70130;44.534;18.678;2024-01-30T09:55:02;107.07;;;52.57;;
80732;SDS011;70130;44.534;18.678;2024-01-30T09:57:29;111.33;;;51.27;;
80732;SDS011;70130;44.534;18.678;2024-01-30T09:59:57;136.57;;;59.47;;
80732;SDS011;70130;44.534;18.678;2024-01-30T10:02:23;146.60;;;67.10;;
80732;SDS011;70130;44.534;18.678;2024-01-30T10:04:53;140.47;;;64.83;;
80732;SDS011;70130;44.534;18.678;2024-01-30T10:07:22;141.87;;;61.87;;
80732;SDS011;70130;44.534;18.678;2024-01-30T10:09:48;138.00;;;63.43;;
80732;SDS011;70130;44.534;18.678;2024-01-30T10:12:15;140.93;;;66.60;;
80732;SDS011;70130;44.534;18.678;2024-01-30T10:14:41;139.17;;;64.60;;
80732;SDS011;70130;44.534;18.678;2024-01-30T10:17:08;146.60;;;66.63;;
80732;SDS011;70130;44.534;18.678;2024-01-30T10:19:37;144.90;;;64.23;;
80732;SDS011;70130;44.534;18.678;2024-01-30T10:22:05;133.17;;;63.33;;
80732;SDS011;70130;44.534;18.678;2024-01-30T10:24:32;147.90;;;64.53;;
80732;SDS011;70130;44.534;18.678;2024-01-30T10:26:59;133.97;;;61.73;;
80732;SDS011;70130;44.534;18.678;2024-01-30T10:29:25;120.00;;;52.50;;
80732;SDS011;70130;44.534;18.678;2024-01-30T10:32:01;117.67;;;51.23;;
80732;SDS011;70130;44.534;18.678;2024-01-30T10:34:28;130.23;;;56.47;;
80732;SDS011;70130;44.534;18.678;2024-01-30T10:37:15;111.10;;;50.47;;
80732;SDS011;70130;44.534;18.678;2024-01-30T10:39:42;111.27;;;50.83;;
80732;SDS011;70130;44.534;18.678;2024-01-30T10:42:12;108.73;;;50.20;;
80732;SDS011;70130;44.534;18.678;2024-01-30T10:44:48;98.47;;;46.73;;
80732;SDS011;70130;44.534;18.678;2024-01-30T10:47:37;99.47;;;41.50;;
80732;SDS011;70130;44.534;18.678;2024-01-30T10:50:05;93.47;;;43.40;;
80732;SDS011;70130;44.534;18.678;2024-01-30T10:52:32;93.97;;;43.53;;
80732;SDS011;70130;44.534;18.678;2024-01-30T10:54:58;85.07;;;38.80;;
80732;SDS011;70130;44.534;18.678;2024-01-30T10:57:28;98.67;;;41.83;;
80732;SDS011;70130;44.534;18.678;2024-01-30T10:59:58;49.63;;;23.20;;
80732;SDS011;70130;44.534;18.678;2024-01-30T11:02:25;51.10;;;20.88;;
80732;SDS011;70130;44.534;18.678;2024-01-30T11:04:58;25.03;;;12.73;;
80732;SDS011;70130;44.534;18.678;2024-01-30T11:07:26;41.70;;;17.73;;
80732;SDS011;70130;44.534;18.678;2024-01-30T11:09:53;90.17;;;35.00;;
80732;SDS011;70130;44.534;18.678;2024-01-30T11:12:32;83.20;;;34.27;;
80732;SDS011;70130;44.534;18.678;2024-01-30T11:20:21;46.43;;;20.07;;
80732;SDS011;70130;44.534;18.678;2024-01-30T11:22:51;44.40;;;17.73;;
80732;SDS011;70130;44.534;18.678;2024-01-30T11:25:19;27.17;;;11.97;;
80732;SDS011;70130;44.534;18.678;2024-01-30T11:27:46;24.03;;;9.80;;
80732;SDS011;70130;44.534;18.678;2024-01-30T11:30:22;15.20;;;7.20;;
80732;SDS011;70130;44.534;18.678;2024-01-30T11:35:34;15.07;;;6.83;;
80732;SDS011;70130;44.534;18.678;2024-01-30T11:38:02;12.02;;;7.10;;
80732;SDS011;70130;44.534;18.678;2024-01-30T11:40:29;10.67;;;6.67;;
80732;SDS011;70130;44.534;18.678;2024-01-30T11:42:56;16.53;;;8.43;;
80732;SDS011;70130;44.534;18.678;2024-01-30T11:45:23;18.03;;;8.20;;
80732;SDS011;70130;44.534;18.678;2024-01-30T11:47:49;13.03;;;6.30;;
80732;SDS011;70130;44.534;18.678;2024-01-30T11:50:15;15.97;;;6.97;;
80732;SDS011;70130;44.534;18.678;2024-01-30T11:52:41;15.83;;;7.50;;
80732;SDS011;70130;44.534;18.678;2024-01-30T11:55:07;16.27;;;7.67;;
80732;SDS011;70130;44.534;18.678;2024-01-30T11:57:33;12.23;;;7.00;;
80732;SDS011;70130;44.534;18.678;2024-01-30T12:00:01;10.33;;;5.53;;
80732;SDS011;70130;44.534;18.678;2024-01-30T12:02:29;10.80;;;6.23;;
80732;SDS011;70130;44.534;18.678;2024-01-30T12:04:55;18.70;;;8.17;;
80732;SDS011;70130;44.534;18.678;2024-01-30T12:07:20;17.27;;;7.87;;
80732;SDS011;70130;44.534;18.678;2024-01-30T12:09:53;16.53;;;7.47;;
80732;SDS011;70130;44.534;18.678;2024-01-30T12:12:21;16.93;;;7.47;;
80732;SDS011;70130;44.534;18.678;2024-01-30T12:14:48;15.40;;;7.00;;
80732;SDS011;70130;44.534;18.678;2024-01-30T12:17:28;13.60;;;7.00;;
80732;SDS011;70130;44.534;18.678;2024-01-30T12:20:03;17.73;;;8.30;;
80732;SDS011;70130;44.534;18.678;2024-01-30T12:22:29;13.43;;;6.47;;
80732;SDS011;70130;44.534;18.678;2024-01-30T12:24:56;17.40;;;7.77;;
80732;SDS011;70130;44.534;18.678;2024-01-30T12:27:21;18.80;;;7.10;;
80732;SDS011;70130;44.534;18.678;2024-01-30T12:29:47;14.93;;;7.20;;
80732;SDS011;70130;44.534;18.678;2024-01-30T12:32:16;14.03;;;7.93;;
80732;SDS011;70130;44.534;18.678;2024-01-30T12:34:42;13.87;;;7.00;;
80732;SDS011;70130;44.534;18.678;2024-01-30T12:37:07;16.77;;;7.13;;
80732;SDS011;70130;44.534;18.678;2024-01-30T12:39:35;11.80;;;6.77;;
80732;SDS011;70130;44.534;18.678;2024-01-30T12:42:00;13.97;;;7.33;;
80732;SDS011;70130;44.534;18.678;2024-01-30T12:44:26;15.87;;;6.20;;
80732;SDS011;70130;44.534;18.678;2024-01-30T12:46:52;14.83;;;7.80;;
80732;SDS011;70130;44.534;18.678;2024-01-30T12:49:18;18.13;;;8.07;;
80732;SDS011;70130;44.534;18.678;2024-01-30T12:51:43;12.67;;;6.90;;
80732;SDS011;70130;44.534;18.678;2024-01-30T12:54:09;11.27;;;6.33;;
80732;SDS011;70130;44.534;18.678;2024-01-30T12:56:34;11.17;;;5.00;;
80732;SDS011;70130;44.534;18.678;2024-01-30T12:59:00;13.27;;;5.73;;
80732;SDS011;70130;44.534;18.678;2024-01-30T13:01:26;14.60;;;5.15;;
80732;SDS011;70130;44.534;18.678;2024-01-30T13:03:55;15.13;;;6.32;;
80732;SDS011;70130;44.534;18.678;2024-01-30T13:06:22;12.07;;;5.43;;
80732;SDS011;70130;44.534;18.678;2024-01-30T13:08:48;12.15;;;4.90;;
80732;SDS011;70130;44.534;18.678;2024-01-30T13:11:13;10.57;;;4.80;;
80732;SDS011;70130;44.534;18.678;2024-01-30T13:13:39;8.43;;;5.07;;
80732;SDS011;70130;44.534;18.678;2024-01-30T13:16:05;15.20;;;6.35;;
80732;SDS011;70130;44.534;18.678;2024-01-30T13:18:31;8.20;;;5.55;;
80732;SDS011;70130;44.534;18.678;2024-01-30T13:20:56;13.57;;;6.23;;
80732;SDS011;70130;44.534;18.678;2024-01-30T13:23:22;9.43;;;4.68;;
80732;SDS011;70130;44.534;18.678;2024-01-30T13:25:48;12.45;;;5.38;;
80732;SDS011;70130;44.534;18.678;2024-01-30T13:28:14;17.00;;;7.60;;
80732;SDS011;70130;44.534;18.678;2024-01-30T13:30:39;15.77;;;6.03;;
80732;SDS011;70130;44.534;18.678;2024-01-30T13:33:05;12.05;;;5.35;;
80732;SDS011;70130;44.534;18.678;2024-01-30T13:35:31;11.02;;;5.35;;
80732;SDS011;70130;44.534;18.678;2024-01-30T13:37:57;14.23;;;5.93;;
80732;SDS011;70130;44.534;18.678;2024-01-30T13:40:23;11.13;;;5.72;;
80732;SDS011;70130;44.534;18.678;2024-01-30T13:42:48;10.90;;;6.13;;
80732;SDS011;70130;44.534;18.678;2024-01-30T13:45:14;17.23;;;6.93;;
80732;SDS011;70130;44.534;18.678;2024-01-30T13:47:40;14.43;;;6.47;;
80732;SDS011;70130;44.534;18.678;2024-01-30T13:50:06;16.97;;;6.70;;
80732;SDS011;70130;44.534;18.678;2024-01-30T13:52:33;10.17;;;5.70;;
80732;SDS011;70130;44.534;18.678;2024-01-30T13:54:58;9.48;;;5.68;;
80732;SDS011;70130;44.534;18.678;2024-01-30T13:57:24;20.27;;;10.20;;
80732;SDS011;70130;44.534;18.678;2024-01-30T13:59:50;24.83;;;10.85;;
80732;SDS011;70130;44.534;18.678;2024-01-30T14:02:16;26.48;;;12.60;;
80732;SDS011;70130;44.534;18.678;2024-01-30T14:04:41;28.88;;;14.40;;
80732;SDS011;70130;44.534;18.678;2024-01-30T14:07:07;36.08;;;14.93;;
80732;SDS011;70130;44.534;18.678;2024-01-30T14:09:32;34.45;;;14.55;;
80732;SDS011;70130;44.534;18.678;2024-01-30T14:11:59;33.15;;;13.90;;
80732;SDS011;70130;44.534;18.678;2024-01-30T14:14:25;31.15;;;12.75;;
80732;SDS011;70130;44.534;18.678;2024-01-30T14:16:50;45.13;;;14.95;;
80732;SDS011;70130;44.534;18.678;2024-01-30T14:19:16;48.30;;;18.65;;
80732;SDS011;70130;44.534;18.678;2024-01-30T14:21:42;48.08;;;20.05;;